Time;durP1;ratioP1;P1;durP2;ratioP2;P2;SDS_P1;SDS_P2;PMS_P1;PMS_P2;Temp;Humidity;BMP_temperature;BMP_pressure;BME280_temperature;BME280_humidity;BME280_pressure;Samples;Min_cycle;Max_cycle;Signal;HPM_P1;HPM_P2
2023/11/09 00:01:09;;;;;;;7.97;3.40;;;;;;;3.14;100.00;96801.59;5063770;28;20523;-61
2023/11/09 00:03:36;;;;;;;5.45;3.20;;;;;;;3.07;100.00;96795.47;5063024;28;20042;-61
2023/11/09 00:06:03;;;;;;;6.20;3.70;;;;;;;3.10;100.00;96795.03;5062461;28;20037;-60
2023/11/09 00:08:30;;;;;;;6.00;3.15;;;;;;;2.96;100.00;96792.47;5062641;28;20733;-62
2023/11/09 00:10:57;;;;;;;5.45;3.13;;;;;;;2.99;100.00;96788.53;5062078;28;20475;-61
2023/11/09 00:13:24;;;;;;;7.00;3.13;;;;;;;2.89;100.00;96783.69;5061311;28;20421;-61
2023/11/09 00:15:51;;;;;;;6.35;3.30;;;;;;;2.73;100.00;96780.47;5061384;28;20066;-60
2023/11/09 00:18:26;;;;;;;6.78;2.85;;;;;;;2.62;100.00;96775.00;5062380;28;20037;-61
2023/11/09 00:20:53;;;;;;;6.53;3.00;;;;;;;2.54;100.00;96776.09;5062713;28;20098;-60
2023/11/09 00:23:19;;;;;;;11.48;3.65;;;;;;;2.52;100.00;96775.47;5061653;28;20037;-60
2023/11/09 00:25:47;;;;;;;8.35;3.65;;;;;;;2.68;100.00;96772.28;5061257;28;20045;-61
2023/11/09 00:28:15;;;;;;;6.90;3.65;;;;;;;2.65;100.00;96770.03;5061663;28;20043;-61
2023/11/09 00:30:43;;;;;;;7.20;3.50;;;;;;;2.54;100.00;96771.56;5062706;28;20071;-61
2023/11/09 00:33:10;;;;;;;6.82;3.85;;;;;;;2.56;100.00;96769.50;5061470;28;20184;-60
2023/11/09 00:35:36;;;;;;;5.82;3.25;;;;;;;2.62;100.00;96775.84;5063278;28;20527;-61
2023/11/09 00:38:04;;;;;;;6.68;3.63;;;;;;;2.60;100.00;96772.56;5060486;28;20033;-61
2023/11/09 00:40:31;;;;;;;6.55;3.42;;;;;;;2.68;100.00;96771.47;5059027;28;20058;-60
2023/11/09 00:42:59;;;;;;;7.25;3.67;;;;;;;2.71;100.00;96766.53;5064624;28;20055;-60
2023/11/09 00:45:26;;;;;;;7.07;3.97;;;;;;;2.78;100.00;96769.16;5062607;28;20036;-61
2023/11/09 00:47:53;;;;;;;6.70;4.00;;;;;;;2.81;100.00;96765.22;5062527;28;20059;-62
2023/11/09 00:50:20;;;;;;;7.50;3.50;;;;;;;2.80;100.00;96753.69;5062230;28;20036;-61
2023/11/09 00:52:46;;;;;;;8.23;4.05;;;;;;;2.77;100.00;96759.50;5048198;28;20068;-61
2023/11/09 00:55:13;;;;;;;7.00;4.03;;;;;;;2.62;100.00;96761.66;5061505;28;20507;-61
2023/11/09 00:57:43;;;;;;;7.47;3.40;;;;;;;2.51;100.00;96750.59;5061877;28;20063;-60
2023/11/09 01:00:10;;;;;;;5.57;2.97;;;;;;;2.51;100.00;96755.13;5062571;28;20049;-61
2023/11/09 01:02:38;;;;;;;5.78;3.38;;;;;;;2.54;100.00;96755.53;5067292;28;20090;-61
2023/11/09 01:05:09;;;;;;;7.13;3.35;;;;;;;2.55;100.00;96754.47;5064815;28;20458;-61
2023/11/09 01:07:36;;;;;;;5.82;3.47;;;;;;;2.47;100.00;96747.53;5048285;28;20396;-61
2023/11/09 01:10:04;;;;;;;5.93;3.22;;;;;;;2.37;100.00;96739.19;5065714;28;20032;-62
2023/11/09 01:12:30;;;;;;;6.22;3.65;;;;;;;2.34;100.00;96739.63;5048063;28;20068;-61
2023/11/09 01:14:57;;;;;;;6.32;3.22;;;;;;;2.36;100.00;96726.84;5063588;28;20040;-62
2023/11/09 01:17:24;;;;;;;7.80;3.22;;;;;;;2.37;100.00;96728.50;5048358;28;20048;-61
2023/11/09 01:19:51;;;;;;;7.43;3.45;;;;;;;2.54;100.00;96722.66;5065583;28;20055;-61
2023/11/09 01:22:18;;;;;;;8.25;3.50;;;;;;;2.29;100.00;96718.88;5065442;28;20036;-61
2023/11/09 01:24:44;;;;;;;5.88;3.40;;;;;;;2.29;100.00;96715.41;5065285;28;20083;-61
2023/11/09 01:27:11;;;;;;;7.90;3.30;;;;;;;2.33;100.00;96709.41;5064807;28;20044;-60
2023/11/09 01:29:38;;;;;;;5.32;3.22;;;;;;;2.67;100.00;96703.84;5065354;28;20040;-61
2023/11/09 01:32:05;;;;;;;6.63;3.40;;;;;;;3.00;100.00;96693.88;5062992;28;20040;-61
2023/11/09 01:34:31;;;;;;;6.97;3.80;;;;;;;3.73;100.00;96702.16;5066215;28;20062;-61
2023/11/09 01:36:58;;;;;;;5.15;3.20;;;;;;;3.92;100.00;96690.63;5064399;28;20044;-61
2023/11/09 01:39:24;;;;;;;7.65;3.63;;;;;;;4.01;100.00;96679.38;5064550;28;20158;-61
2023/11/09 01:41:51;;;;;;;4.90;3.15;;;;;;;4.19;100.00;96677.69;5060284;28;20051;-61
2023/11/09 01:44:17;;;;;;;8.15;3.50;;;;;;;4.38;100.00;96672.25;5066318;28;20121;-60
2023/11/09 01:46:46;;;;;;;6.72;2.92;;;;;;;4.44;100.00;96668.66;5063371;28;20041;-61
2023/11/09 01:49:13;;;;;;;8.18;3.35;;;;;;;4.48;100.00;96672.53;5064293;28;20052;-61
2023/11/09 01:51:43;;;;;;;4.95;3.28;;;;;;;4.51;100.00;96669.41;5063187;28;20050;-61
2023/11/09 01:54:11;;;;;;;5.43;3.22;;;;;;;4.58;100.00;96669.28;5064092;28;20062;-61
2023/11/09 01:56:38;;;;;;;4.75;2.85;;;;;;;4.58;100.00;96663.09;5034222;28;20135;-61
2023/11/09 01:59:07;;;;;;;5.45;3.28;;;;;;;4.53;100.00;96669.13;5030829;28;20040;-62
2023/11/09 02:01:36;;;;;;;5.32;3.08;;;;;;;4.43;100.00;96664.38;5035940;28;20897;-60
2023/11/09 02:04:03;;;;;;;6.40;3.40;;;;;;;4.33;100.00;96656.88;5044545;28;20127;-61
2023/11/09 02:06:30;;;;;;;5.97;3.47;;;;;;;4.32;100.00;96662.47;5048179;28;20620;-61
2023/11/09 02:08:58;;;;;;;5.50;3.03;;;;;;;4.28;100.00;96664.78;5064476;28;20116;-61
2023/11/09 02:11:25;;;;;;;6.85;3.17;;;;;;;4.13;100.00;96657.97;5057075;28;20661;-61
2023/11/09 02:13:52;;;;;;;6.00;3.65;;;;;;;4.00;100.00;96653.63;5064679;28;20041;-61
2023/11/09 02:16:19;;;;;;;4.80;2.78;;;;;;;3.92;100.00;96645.09;5045326;28;20131;-61
2023/11/09 02:18:46;;;;;;;5.47;2.92;;;;;;;3.87;100.00;96651.94;5049192;28;20042;-61
2023/11/09 02:21:15;;;;;;;5.85;3.35;;;;;;;3.89;100.00;96644.50;5045276;28;20085;-61
2023/11/09 02:23:43;;;;;;;6.32;3.78;;;;;;;3.89;100.00;96631.13;5064405;28;20537;-61
2023/11/09 02:26:10;;;;;;;5.90;3.20;;;;;;;3.82;100.00;96634.91;5062515;28;20066;-60
2023/11/09 02:28:37;;;;;;;5.05;3.55;;;;;;;3.70;100.00;96630.34;5059452;28;20047;-60
2023/11/09 02:31:03;;;;;;;6.00;3.30;;;;;;;3.63;100.00;96624.25;5063592;28;20124;-61
2023/11/09 02:33:30;;;;;;;7.13;3.75;;;;;;;3.50;100.00;96620.69;5061073;28;20551;-61
2023/11/09 02:35:57;;;;;;;5.45;3.45;;;;;;;3.43;100.00;96619.94;5039806;28;20049;-60
2023/11/09 02:38:23;;;;;;;5.68;3.90;;;;;;;3.36;100.00;96616.56;5064816;28;20120;-61
2023/11/09 02:40:50;;;;;;;5.72;3.17;;;;;;;3.19;100.00;96614.47;5063686;28;20574;-61
2023/11/09 02:43:17;;;;;;;6.82;3.50;;;;;;;3.19;100.00;96606.44;5061595;28;20041;-61
2023/11/09 02:45:43;;;;;;;6.53;3.50;;;;;;;3.16;100.00;96608.75;5060302;28;20731;-61
2023/11/09 02:48:10;;;;;;;5.30;3.30;;;;;;;3.16;100.00;96608.75;5066168;28;20639;-61
2023/11/09 02:50:37;;;;;;;6.32;3.75;;;;;;;3.12;100.00;96603.03;5060627;28;20037;-61
2023/11/09 02:53:03;;;;;;;9.40;3.97;;;;;;;3.11;100.00;96609.41;5063693;28;20051;-60
2023/11/09 02:55:30;;;;;;;6.30;3.30;;;;;;;3.12;100.00;96608.38;5063574;28;20052;-61
2023/11/09 02:57:57;;;;;;;6.85;3.38;;;;;;;3.11;100.00;96609.41;5063028;28;20036;-60
2023/11/09 03:00:23;;;;;;;6.43;3.50;;;;;;;3.12;100.00;96600.34;5049358;28;20095;-60
2023/11/09 03:02:50;;;;;;;6.68;3.42;;;;;;;3.06;100.00;96607.41;5055868;28;20040;-61
2023/11/09 03:05:21;;;;;;;6.75;3.30;;;;;;;3.10;100.00;96605.91;5061649;28;20032;-61
2023/11/09 03:07:49;;;;;;;8.75;3.65;;;;;;;3.18;100.00;96604.81;5044793;28;20037;-60
2023/11/09 03:10:16;;;;;;;7.05;4.13;;;;;;;3.21;100.00;96619.59;5065252;28;20043;-61
2023/11/09 03:12:43;;;;;;;6.53;3.63;;;;;;;3.19;100.00;96613.66;5065293;28;20067;-61
2023/11/09 03:15:10;;;;;;;6.15;3.53;;;;;;;3.19;100.00;96614.47;5059905;28;20070;-61
2023/11/09 03:17:40;;;;;;;7.05;3.42;;;;;;;3.21;100.00;96599.00;5062285;28;20044;-60
2023/11/09 03:20:09;;;;;;;6.63;3.53;;;;;;;3.19;100.00;96602.94;5059456;28;20124;-61
2023/11/09 03:22:37;;;;;;;5.75;3.17;;;;;;;3.06;100.00;96590.56;5062805;28;20036;-60
2023/11/09 03:25:04;;;;;;;6.03;3.33;;;;;;;2.79;100.00;96583.63;5062568;28;20063;-60
2023/11/09 03:27:32;;;;;;;6.50;3.53;;;;;;;2.64;100.00;96583.16;5061401;28;20557;-60
2023/11/09 03:29:59;;;;;;;6.78;3.67;;;;;;;2.58;100.00;96584.88;5061501;28;20507;-61
2023/11/09 03:32:26;;;;;;;7.20;3.28;;;;;;;2.54;100.00;96576.47;5063071;28;20090;-62
2023/11/09 03:34:52;;;;;;;9.57;3.95;;;;;;;2.46;100.00;96572.22;5060082;28;20040;-61
2023/11/09 03:37:19;;;;;;;4.82;3.03;;;;;;;2.53;100.00;96568.66;5062794;28;20036;-60
2023/11/09 03:39:46;;;;;;;8.93;3.63;;;;;;;2.55;100.00;96563.94;5061896;28;20676;-60
2023/11/09 03:42:14;;;;;;;5.25;3.03;;;;;;;2.58;100.00;96568.84;5044961;28;20102;-61
2023/11/09 03:44:43;;;;;;;7.32;3.45;;;;;;;2.46;100.00;96560.69;5063164;28;20044;-61
2023/11/09 03:47:10;;;;;;;6.88;3.55;;;;;;;2.33;100.00;96559.78;5061621;28;20082;-60
2023/11/09 03:49:43;;;;;;;5.57;3.17;;;;;;;2.25;100.00;96556.59;5062660;28;20033;-61
2023/11/09 03:52:10;;;;;;;5.70;3.17;;;;;;;2.03;100.00;96556.97;5061721;28;20052;-60
2023/11/09 03:54:37;;;;;;;7.43;3.63;;;;;;;1.95;100.00;96555.38;5040094;28;20440;-61
2023/11/09 03:57:03;;;;;;;6.43;3.80;;;;;;;1.96;100.00;96559.69;5059490;28;20684;-61
2023/11/09 03:59:30;;;;;;;10.70;3.90;;;;;;;1.80;100.00;96547.66;5059527;28;20093;-61
2023/11/09 04:01:57;;;;;;;7.80;3.45;;;;;;;1.69;100.00;96558.00;5043238;28;21609;-61
2023/11/09 04:04:23;;;;;;;5.28;3.20;;;;;;;1.71;100.00;96554.31;5061566;28;20072;-61
2023/11/09 04:06:50;;;;;;;7.40;4.03;;;;;;;1.67;100.00;96548.59;5062236;28;20068;-60
2023/11/09 04:09:21;;;;;;;6.93;3.35;;;;;;;1.64;100.00;96557.00;5067704;28;20047;-61
2023/11/09 04:11:48;;;;;;;5.88;3.53;;;;;;;1.68;100.00;96559.06;5062224;28;20093;-61
2023/11/09 04:14:14;;;;;;;5.88;3.92;;;;;;;1.49;100.00;96549.31;5062364;28;20059;-61
2023/11/09 04:16:41;;;;;;;8.07;4.03;;;;;;;1.43;100.00;96553.63;5061029;28;20234;-61
2023/11/09 04:19:07;;;;;;;8.05;4.60;;;;;;;1.39;100.00;96555.09;5061797;28;20068;-61
2023/11/09 04:21:35;;;;;;;7.68;4.68;;;;;;;1.41;100.00;96550.38;5072595;28;20098;-61
2023/11/09 04:24:02;;;;;;;7.93;4.43;;;;;;;1.32;100.00;96546.34;5046844;28;20056;-60
2023/11/09 04:26:32;;;;;;;8.63;4.43;;;;;;;1.29;100.00;96552.91;5062251;28;20040;-61
2023/11/09 04:29:03;;;;;;;8.57;4.35;;;;;;;1.22;100.00;96542.25;5058835;28;20033;-60
2023/11/09 04:31:31;;;;;;;8.18;4.03;;;;;;;1.35;100.00;96546.72;5061859;28;20102;-60
2023/11/09 04:34:08;;;;;;;7.90;4.60;;;;;;;1.30;100.00;96538.53;5061166;28;20044;-61
2023/11/09 04:36:44;;;;;;;6.88;4.25;;;;;;;1.43;100.00;96548.31;5064647;28;20040;-61
2023/11/09 04:39:13;;;;;;;7.95;3.88;;;;;;;1.49;100.00;96541.31;5064234;28;20040;-62
2023/11/09 04:41:41;;;;;;;7.10;4.15;;;;;;;1.52;100.00;96533.69;5046900;28;20044;-62
2023/11/09 04:44:08;;;;;;;9.95;4.38;;;;;;;1.59;100.00;96531.00;5066479;28;20041;-61
2023/11/09 04:46:40;;;;;;;5.72;3.67;;;;;;;1.59;100.00;96531.00;5065966;28;20036;-60
2023/11/09 04:49:07;;;;;;;7.15;3.85;;;;;;;1.60;100.00;96526.44;5064265;28;20040;-61
2023/11/09 04:51:35;;;;;;;7.38;4.30;;;;;;;1.64;100.00;96517.00;5067711;28;20041;-62
2023/11/09 04:54:16;;;;;;;11.32;4.63;;;;;;;1.65;100.00;96507.94;5065643;28;20044;-61
2023/11/09 05:07:35;;;;;;;8.00;4.70;;;;;;;1.75;100.00;96513.63;5061621;28;20054;-61
2023/11/09 05:10:03;;;;;;;8.73;4.75;;;;;;;1.93;100.00;96504.88;5064985;28;20518;-60
2023/11/09 05:12:29;;;;;;;7.18;4.28;;;;;;;2.07;100.00;96502.09;5067303;28;20044;-61
2023/11/09 05:14:56;;;;;;;9.05;4.72;;;;;;;2.21;100.00;96500.91;5062699;28;20072;-61
2023/11/09 05:17:23;;;;;;;8.02;4.45;;;;;;;2.48;100.00;96497.19;5066401;28;20041;-61
2023/11/09 05:19:50;;;;;;;7.20;3.83;;;;;;;2.57;100.00;96501.19;5070698;28;20503;-60
2023/11/09 05:22:18;;;;;;;12.68;5.07;;;;;;;2.66;100.00;96501.72;5066628;28;20040;-60
2023/11/09 05:24:45;;;;;;;7.97;4.18;;;;;;;2.84;100.00;96489.38;5066871;28;20048;-62
2023/11/09 05:27:11;;;;;;;8.13;4.15;;;;;;;2.87;100.00;96491.59;5064263;28;20124;-61
2023/11/09 05:29:38;;;;;;;9.48;4.70;;;;;;;2.95;100.00;96490.50;5060636;28;20043;-61
2023/11/09 05:32:08;;;;;;;7.03;4.00;;;;;;;3.02;100.00;96495.75;5047653;28;20508;-60
2023/11/09 05:34:36;;;;;;;7.43;4.60;;;;;;;3.01;100.00;96486.06;5065980;28;20036;-61
2023/11/09 05:37:03;;;;;;;7.13;4.20;;;;;;;3.02;100.00;96488.53;5051138;28;20040;-61
2023/11/09 05:39:31;;;;;;;8.15;4.25;;;;;;;3.03;100.00;96492.03;5065625;28;20039;-61
2023/11/09 05:41:59;;;;;;;6.35;4.30;;;;;;;3.21;100.00;96486.63;5060740;28;20047;-61
2023/11/09 05:44:27;;;;;;;9.68;4.13;;;;;;;3.28;100.00;96483.06;5065178;28;20068;-61
2023/11/09 05:46:57;;;;;;;8.93;4.50;;;;;;;3.43;100.00;96485.34;5061994;28;20692;-61
2023/11/09 05:49:23;;;;;;;7.63;4.15;;;;;;;3.51;100.00;96485.81;5065477;28;20044;-62
2023/11/09 05:51:51;;;;;;;9.15;4.18;;;;;;;3.71;100.00;96490.06;5064681;28;20071;-62
2023/11/09 05:54:18;;;;;;;7.65;4.30;;;;;;;3.79;100.00;96486.22;5063357;28;20044;-61
2023/11/09 05:56:45;;;;;;;7.45;4.40;;;;;;;3.88;100.00;96482.16;5062454;28;20072;-62
2023/11/09 05:59:13;;;;;;;9.00;4.50;;;;;;;3.99;100.00;96487.78;5064323;28;20094;-61
2023/11/09 06:01:42;;;;;;;7.90;4.38;;;;;;;4.08;100.00;96481.03;5064786;28;20060;-62
2023/11/09 06:04:08;;;;;;;7.07;4.20;;;;;;;4.17;100.00;96481.50;5064698;28;20043;-61
2023/11/09 06:06:37;;;;;;;7.07;3.88;;;;;;;4.29;100.00;96482.31;5063252;28;20043;-63
2023/11/09 06:09:06;;;;;;;10.18;4.45;;;;;;;4.28;100.00;96469.94;5066660;28;20042;-61
2023/11/09 06:11:34;;;;;;;8.35;4.15;;;;;;;4.30;100.00;96469.72;5065013;28;20079;-61
2023/11/09 06:14:03;;;;;;;7.80;3.85;;;;;;;4.32;100.00;96461.47;5063524;28;20444;-60
2023/11/09 06:16:31;;;;;;;6.72;4.13;;;;;;;4.33;100.00;96463.91;5060453;28;20044;-61
2023/11/09 06:18:58;;;;;;;7.85;4.00;;;;;;;4.35;100.00;96461.00;5062261;28;20036;-60
2023/11/09 06:21:24;;;;;;;7.97;3.75;;;;;;;4.35;100.00;96461.00;5059619;28;20052;-61
2023/11/09 06:23:52;;;;;;;6.75;3.30;;;;;;;4.34;100.00;96459.34;5064034;28;20123;-60
2023/11/09 06:26:22;;;;;;;6.63;3.70;;;;;;;4.32;100.00;96464.13;5063904;28;20047;-61
2023/11/09 06:28:52;;;;;;;5.72;3.67;;;;;;;4.31;100.00;96459.84;5064162;28;20119;-60
2023/11/09 06:31:21;;;;;;;5.80;3.40;;;;;;;4.43;100.00;96458.75;5062380;28;20082;-61
2023/11/09 06:33:51;;;;;;;7.07;4.05;;;;;;;4.45;100.00;96458.53;5063977;28;20130;-61
2023/11/09 06:36:19;;;;;;;7.65;3.88;;;;;;;4.47;100.00;96464.47;5063336;28;20102;-60
2023/11/09 06:38:47;;;;;;;6.60;3.50;;;;;;;4.53;100.00;96468.06;5063763;28;20060;-61
2023/11/09 06:41:14;;;;;;;6.38;2.95;;;;;;;4.57;100.00;96458.50;5062037;28;20053;-61
2023/11/09 06:43:42;;;;;;;6.70;2.83;;;;;;;4.64;100.00;96463.75;5061407;28;20036;-61
2023/11/09 06:46:09;;;;;;;6.30;3.55;;;;;;;4.84;100.00;96468.72;5062020;28;20082;-61
2023/11/09 06:48:35;;;;;;;6.78;3.05;;;;;;;4.97;100.00;96466.81;5064312;28;20155;-60
2023/11/09 06:51:03;;;;;;;6.22;3.05;;;;;;;5.01;100.00;96468.78;5060822;28;20052;-62
2023/11/09 06:53:30;;;;;;;7.28;3.28;;;;;;;5.04;100.00;96470.16;5062396;28;20051;-62
2023/11/09 06:55:57;;;;;;;5.63;3.15;;;;;;;5.14;100.00;96473.06;5060472;28;20049;-61
2023/11/09 06:58:24;;;;;;;5.43;3.15;;;;;;;5.36;100.00;96475.06;5062067;28;20044;-61
2023/11/09 07:00:51;;;;;;;7.28;2.88;;;;;;;5.45;100.00;96470.94;5061281;28;20033;-61
2023/11/09 07:03:19;;;;;;;4.93;2.53;;;;;;;5.65;100.00;96475.03;5064234;28;20051;-62
2023/11/09 07:05:46;;;;;;;6.07;3.00;;;;;;;5.71;99.11;96471.38;5059702;28;20127;-62
2023/11/09 07:08:12;;;;;;;5.72;2.80;;;;;;;5.69;99.51;96473.50;5059690;28;20136;-61
2023/11/09 07:10:40;;;;;;;5.32;2.78;;;;;;;5.66;99.82;96470.47;5061851;28;20102;-60
2023/11/09 07:13:07;;;;;;;4.68;2.80;;;;;;;5.66;99.55;96473.16;5062377;28;20086;-61
2023/11/09 07:15:33;;;;;;;7.47;2.90;;;;;;;5.66;99.49;96467.78;5047280;28;20040;-63
2023/11/09 07:18:03;;;;;;;5.75;2.80;;;;;;;5.72;98.92;96475.69;5061022;28;20040;-63
2023/11/09 07:20:33;;;;;;;6.05;2.60;;;;;;;5.78;98.86;96481.97;5060711;28;20507;-59
2023/11/09 07:23:06;;;;;;;5.72;2.58;;;;;;;5.79;98.67;96480.09;5061284;28;22077;-61
2023/11/09 07:25:36;;;;;;;5.90;2.45;;;;;;;5.82;97.94;96476.94;5066446;28;20040;-61
2023/11/09 07:28:04;;;;;;;5.15;2.45;;;;;;;5.78;98.37;96476.59;5061083;28;20044;-61
2023/11/09 07:30:32;;;;;;;6.22;2.70;;;;;;;5.84;97.35;96485.56;5058444;28;20646;-61
2023/11/09 07:33:00;;;;;;;4.65;2.45;;;;;;;5.86;97.40;96478.88;5055947;28;20048;-61
2023/11/09 07:35:29;;;;;;;4.70;2.33;;;;;;;5.83;98.46;96478.56;5059211;28;20044;-62
2023/11/09 07:37:58;;;;;;;4.55;2.55;;;;;;;5.88;97.62;96473.25;5058304;28;20044;-61
2023/11/09 07:40:27;;;;;;;4.43;2.60;;;;;;;5.87;98.16;96477.00;5057422;28;20097;-61
2023/11/09 07:42:57;;;;;;;4.57;2.58;;;;;;;5.85;98.52;96466.50;5060559;28;20036;-62
2023/11/09 07:45:24;;;;;;;4.32;2.10;;;;;;;5.97;97.70;96469.09;5061788;28;20048;-61
2023/11/09 07:47:50;;;;;;;4.90;2.45;;;;;;;6.04;96.72;96473.56;5043506;28;20045;-61
2023/11/09 07:50:17;;;;;;;4.15;2.30;;;;;;;6.09;96.40;96482.47;5057130;28;20898;-61
2023/11/09 07:52:47;;;;;;;7.97;2.70;;;;;;;6.21;95.11;96468.16;5057530;28;20054;-61
2023/11/09 07:55:15;;;;;;;3.45;2.05;;;;;;;6.34;94.33;96483.13;5059436;28;20097;-61
2023/11/09 07:57:42;;;;;;;5.13;2.47;;;;;;;6.37;94.64;96483.44;5056910;28;20669;-61
2023/11/09 08:00:11;;;;;;;5.13;2.05;;;;;;;6.31;95.04;96479.06;5056365;28;20033;-61
2023/11/09 08:02:38;;;;;;;5.13;2.20;;;;;;;6.33;94.21;96482.31;5065071;28;20518;-61
2023/11/09 08:05:11;;;;;;;6.65;2.55;;;;;;;6.33;93.45;96474.25;5060492;28;20044;-65
2023/11/09 08:07:39;;;;;;;5.45;2.00;;;;;;;6.37;93.96;96474.56;5053602;28;20519;-65
2023/11/09 08:10:06;;;;;;;4.53;2.30;;;;;;;6.40;93.73;96476.75;5060731;28;20217;-64
2023/11/09 08:12:34;;;;;;;4.15;2.17;;;;;;;6.43;94.08;96478.97;5043418;28;20040;-63
2023/11/09 08:15:10;;;;;;;5.65;2.00;;;;;;;6.49;94.29;96474.47;5063306;28;20111;-64
2023/11/09 08:17:41;;;;;;;3.30;1.60;;;;;;;6.52;94.83;96479.34;5063739;28;20682;-63
2023/11/09 08:20:13;;;;;;;3.92;2.00;;;;;;;6.64;94.42;96474.66;5039219;28;20049;-63
2023/11/09 08:22:42;;;;;;;3.78;1.38;;;;;;;6.76;94.42;96479.94;5057089;28;20560;-62
2023/11/09 08:25:08;;;;;;;2.85;1.38;;;;;;;6.88;94.38;96477.13;5061617;28;20523;-62
2023/11/09 08:27:40;;;;;;;2.40;1.30;;;;;;;7.02;93.93;96477.56;5063837;28;20126;-64
2023/11/09 08:30:10;;;;;;;;;;;;;;;7.19;93.56;96476.66;5064976;28;20036;-64
2023/11/09 08:32:38;;;;;;;1.77;0.70;;;;;;;7.44;91.42;96485.28;5064697;28;19927;-62
2023/11/09 08:35:10;;;;;;;3.75;1.02;;;;;;;7.65;90.02;96486.28;5064066;28;20033;-62
2023/11/09 08:37:37;;;;;;;;;;;;;;;7.85;88.46;96480.28;5066232;28;20036;-64
2023/11/09 08:40:21;;;;;;;2.88;0.55;;;;;;;7.95;87.33;96482.25;5063555;28;19920;-63
2023/11/09 08:42:49;;;;;;;1.63;0.70;;;;;;;8.08;86.84;96494.50;5052202;28;20072;-65
2023/11/09 08:45:17;;;;;;;1.80;0.70;;;;;;;8.10;86.21;96470.78;5063044;28;20052;-64
2023/11/09 08:47:45;;;;;;;1.30;0.60;;;;;;;8.10;86.82;96469.97;5066844;28;20048;-63
2023/11/09 08:50:13;;;;;;;1.67;0.60;;;;;;;8.11;87.66;96477.78;5066729;28;20488;-62
2023/11/09 08:52:40;;;;;;;1.27;0.60;;;;;;;8.08;88.06;96478.31;5063022;28;20037;-62
2023/11/09 08:55:08;;;;;;;1.08;0.60;;;;;;;8.05;88.46;96470.75;5062952;28;20055;-63
2023/11/09 08:57:37;;;;;;;1.25;0.70;;;;;;;8.09;88.07;96471.84;5067171;28;20532;-63
2023/11/09 09:00:11;;;;;;;2.45;0.88;;;;;;;8.01;88.70;96477.72;5063689;28;20559;-64
2023/11/09 09:02:48;;;;;;;1.02;0.60;;;;;;;7.97;89.83;96473.91;5068757;28;20036;-63
2023/11/09 09:05:24;;;;;;;1.80;0.82;;;;;;;7.96;89.13;96481.16;5057656;28;20048;-64
2023/11/09 09:07:53;;;;;;;1.95;0.60;;;;;;;7.96;89.42;96489.25;5065621;28;20115;-63
2023/11/09 09:10:26;;;;;;;1.98;0.80;;;;;;;7.97;89.99;96471.22;5065407;28;20037;-63
2023/11/09 09:12:59;;;;;;;4.03;0.98;;;;;;;7.94;90.48;96473.38;5064585;28;20033;-61
2023/11/09 09:15:28;;;;;;;1.70;0.70;;;;;;;7.90;91.95;96466.88;5067690;28;20222;-62
2023/11/09 09:17:56;;;;;;;2.97;0.95;;;;;;;7.87;91.01;96455.75;5047888;28;20052;-63
2023/11/09 09:20:23;;;;;;;2.55;0.73;;;;;;;7.90;91.17;96460.66;5063453;28;20579;-62
2023/11/09 09:22:54;;;;;;;2.40;0.80;;;;;;;7.91;91.05;96460.41;5063249;28;20120;-64
2023/11/09 09:25:22;;;;;;;2.38;0.80;;;;;;;7.93;91.57;96450.16;5063059;28;20063;-61
2023/11/09 09:27:50;;;;;;;2.25;0.93;;;;;;;7.91;92.13;96455.00;5066613;28;20489;-62
2023/11/09 09:30:21;;;;;;;1.42;0.68;;;;;;;8.07;91.06;96442.44;5065826;28;20043;-64
2023/11/09 09:32:50;;;;;;;1.85;0.82;;;;;;;8.13;91.75;96442.47;5050960;28;20057;-63
2023/11/09 09:35:24;;;;;;;3.78;1.58;;;;;;;8.14;90.68;96447.63;5065887;28;20040;-62
2023/11/09 09:37:57;;;;;;;4.43;1.00;;;;;;;8.11;90.80;96450.03;5065763;28;20411;-63
2023/11/09 09:40:25;;;;;;;2.67;1.35;;;;;;;8.07;90.23;96447.84;5063086;28;20153;-64
2023/11/09 09:43:02;;;;;;;3.15;1.42;;;;;;;8.18;90.67;96459.50;5058996;28;20066;-62
2023/11/09 09:45:33;;;;;;;2.80;1.20;;;;;;;8.24;89.81;96463.06;5059111;28;20056;-62
2023/11/09 09:48:01;;;;;;;2.08;1.13;;;;;;;8.28;89.59;96466.03;5065152;28;20048;-63
2023/11/09 09:50:34;;;;;;;2.45;1.30;;;;;;;8.41;89.46;96459.38;5064491;28;20535;-62
2023/11/09 09:53:01;;;;;;;2.83;1.35;;;;;;;8.35;90.17;96460.41;5062755;28;20082;-64
2023/11/09 09:55:28;;;;;;;3.50;1.40;;;;;;;8.39;89.69;96450.72;5063852;28;20037;-64
2023/11/09 09:57:55;;;;;;;7.80;2.88;;;;;;;8.23;90.99;96458.75;5061638;28;20041;-63
2023/11/09 10:00:23;;;;;;;3.20;1.67;;;;;;;8.29;90.58;96446.09;5064379;28;20708;-63
2023/11/09 10:02:51;;;;;;;2.83;1.50;;;;;;;8.31;90.67;96458.25;5059862;28;20036;-64
2023/11/09 10:05:18;;;;;;;2.83;1.40;;;;;;;8.43;90.92;96458.06;5064259;28;20105;-65
2023/11/09 10:08:04;;;;;;;3.50;1.80;;;;;;;8.45;91.38;96464.00;5057462;28;20047;-64
2023/11/09 10:10:34;;;;;;;4.55;2.00;;;;;;;8.44;91.59;96458.88;5063051;28;20036;-65
2023/11/09 10:13:07;;;;;;;5.22;1.75;;;;;;;8.47;91.49;96455.63;5063476;28;20037;-64
2023/11/09 10:15:34;;;;;;;3.67;1.80;;;;;;;8.58;91.57;96453.84;5062813;28;20032;-63
2023/11/09 10:18:01;;;;;;;4.88;2.00;;;;;;;8.69;89.99;96452.00;5067195;28;20060;-63
2023/11/09 10:20:29;;;;;;;4.15;1.75;;;;;;;8.74;90.69;96445.81;5064639;28;20041;-63
2023/11/09 10:22:57;;;;;;;3.65;1.88;;;;;;;8.83;91.21;96442.38;5061158;28;20052;-63
2023/11/09 10:25:28;;;;;;;3.60;1.58;;;;;;;8.96;90.65;96430.25;5060679;28;20454;-62
2023/11/09 10:28:00;;;;;;;4.38;1.85;;;;;;;8.90;91.42;96419.69;5063599;28;20694;-64
2023/11/09 10:30:35;;;;;;;3.17;1.42;;;;;;;8.99;92.08;96418.09;5065037;28;20040;-63
2023/11/09 10:33:18;;;;;;;3.10;1.20;;;;;;;9.06;92.05;96415.97;5060104;28;20098;-63
2023/11/09 10:35:46;;;;;;;3.58;1.35;;;;;;;9.19;91.79;96420.06;5057612;28;20082;-62
2023/11/09 10:38:20;;;;;;;3.20;1.13;;;;;;;9.36;92.01;96424.41;5069094;28;20718;-62
2023/11/09 10:40:47;;;;;;;2.65;0.88;;;;;;;9.61;91.75;96426.34;5061607;28;22438;-62
2023/11/09 10:43:36;;;;;;;1.52;0.88;;;;;;;9.86;90.34;96419.34;5061181;28;20072;-63
2023/11/09 10:46:07;;;;;;;3.60;0.90;;;;;;;9.93;89.87;96420.94;5057255;28;21290;-63
2023/11/09 10:48:40;;;;;;;1.38;0.70;;;;;;;9.99;90.84;96423.38;5040076;28;20515;-62
2023/11/09 10:51:09;;;;;;;2.10;0.93;;;;;;;10.13;90.28;96420.94;5060181;28;20535;-62
2023/11/09 10:53:37;;;;;;;4.05;0.68;;;;;;;10.19;89.56;96410.09;5062587;28;20047;-63
2023/11/09 10:56:10;;;;;;;2.10;0.80;;;;;;;10.10;90.69;96409.84;5059025;28;20090;-62
2023/11/09 10:58:40;;;;;;;2.05;0.63;;;;;;;10.28;90.47;96409.28;5060090;28;20595;-62
2023/11/09 11:01:10;;;;;;;1.07;0.50;;;;;;;10.46;90.04;96415.22;5036026;28;20257;-62
2023/11/09 11:03:44;;;;;;;1.90;0.43;;;;;;;10.39;90.88;96414.66;5061452;28;20294;-62
2023/11/09 11:06:16;;;;;;;1.98;0.82;;;;;;;10.45;89.58;96408.19;5060321;28;20044;-62
2023/11/09 11:08:49;;;;;;;1.88;0.73;;;;;;;10.46;89.95;96401.69;5061351;28;20043;-63
2023/11/09 11:11:28;;;;;;;1.13;0.50;;;;;;;10.56;90.01;96408.97;5058665;28;20514;-64
2023/11/09 11:14:02;;;;;;;2.28;0.80;;;;;;;10.62;90.33;96399.72;5061444;28;20450;-62
2023/11/09 11:16:44;;;;;;;3.13;0.65;;;;;;;10.62;89.24;96388.09;5064760;28;20044;-62
2023/11/09 11:19:21;;;;;;;1.65;0.30;;;;;;;10.61;88.70;96397.31;5060940;28;20049;-63
2023/11/09 11:21:57;;;;;;;0.47;0.40;;;;;;;10.43;89.90;96385.16;5060871;28;20068;-62
2023/11/09 11:24:58;;;;;;;1.65;0.50;;;;;;;10.40;90.96;96384.63;5063392;28;20045;-62
2023/11/09 11:27:45;;;;;;;0.80;0.47;;;;;;;10.51;90.30;96388.13;5060509;28;21091;-63
2023/11/09 11:30:13;;;;;;;1.70;0.50;;;;;;;10.55;90.40;96372.16;5058901;28;20302;-63
2023/11/09 11:32:40;;;;;;;1.30;0.35;;;;;;;10.61;90.08;96378.38;5060491;28;20131;-63
2023/11/09 11:35:07;;;;;;;0.88;0.47;;;;;;;10.63;90.05;96384.31;5063516;28;20642;-63
2023/11/09 11:37:33;;;;;;;0.85;0.45;;;;;;;10.60;89.47;96379.44;5061533;28;20037;-63
2023/11/09 11:40:05;;;;;;;0.77;0.40;;;;;;;10.60;90.35;96374.84;5063349;28;20431;-63
2023/11/09 11:42:34;;;;;;;0.98;0.40;;;;;;;10.63;90.31;96368.88;5032632;28;20726;-64
2023/11/09 11:45:01;;;;;;;0.55;0.45;;;;;;;10.48;90.41;96364.34;5063068;28;20051;-64
2023/11/09 11:47:30;;;;;;;1.13;0.60;;;;;;;10.64;90.25;96366.97;5062558;28;20044;-63
2023/11/09 11:50:04;;;;;;;1.63;0.52;;;;;;;10.54;90.41;96371.34;5060625;28;20048;-63
2023/11/09 11:52:32;;;;;;;2.15;0.40;;;;;;;10.52;90.04;96359.19;5061341;28;20056;-64
2023/11/09 11:55:03;;;;;;;0.90;0.43;;;;;;;10.44;90.39;96357.00;5062413;28;20090;-63